McKeesport, PA

3:19 PM EDT on August 28, 2015 (GMT -0400)
Mckeesport | | Change Station
CLOSE
Current Station
Personal Weather Station
Location: McKeesport, PA
Elevation: 1148 ft
Nearby Weather Stations

Elev 1148 ft 40.32 °N, 79.81 °W | Updated 36 days ago

Clear
Clear
81 °F
Feels Like 81 °F
N
5
Wind Variable Wind from SW
Gusts mph

Today
High -- | Low -- °F
--% Chance of Precip.
Yesterday
High -- | Low -- °F
Precip. -- in
6:42 AM 7:57 PM
Waxing Gibbous, 99% visible
Pressure 30.19 in
Visibility 10.0 miles
Clouds Clear
Dew Point 52 °F
Humidity 37%
Rainfall in
Snow Depth Not available.
UV 8 out of 12
Pollen 9.80 out of 12
Air Quality Not available.
Flu Activity Not available.
METAR KAGC 281853Z 00000KT 10SM CLR 24/08 A3019 RMK AO2 SLP222 T02390078
Pressure 30.19 in
Visibility 10.0 miles
Clouds Clear
Dew Point 52 °F
Humidity 37%
Rainfall in
Snow Depth Not available.
UV 8 out of 12
Pollen 9.80 out of 12
Air Quality Not available.
Flu Activity Not available.
METAR KAGC 281853Z 00000KT 10SM CLR 24/08 A3019 RMK AO2 SLP222 T02390078

10-Day Weather Forecast

×

Almanac

Astronomy

Aug. 28, 2015 Rise Set
Actual Time
Civil Twilight
Nautical Twilight
Astronomical Twilight
Moon
Length of Visible Light
Length of Day
Tomorrow will be .
, % of the Moon is Illuminated

Today's Extremes

State Highs State Lows

Community

WunderPhotos

Upload Photos

1,850,460 photos uploaded!

WunderBlogs® & News

Nearby

Air Quality

  Air Quality AQ Index Pollutant
Not available.

Snow Depth

Station Depth Elevation

Earthquake Activity

City Distance Mag. Time & Date
Minimum magnitude displayed is 2.5.

Coastal Water Temperatures

Place Temperature

Stations

Nearby Weather Stations

Station Location Temp. Windchill Dew Point Humidity Wind Precip. Elev Updated Type